Time;durP1;ratioP1;P1;durP2;ratioP2;P2;SDS_P1;SDS_P2;PMS_P1;PMS_P2;Temp;Humidity;BMP_temperature;BMP_pressure;BME280_temperature;BME280_humidity;BME280_pressure;Samples;Min_cycle;Max_cycle;Signal;HPM_P1;HPM_P2
2021/12/29 00:00:21;;;;;;;;;;;7.20;99.90;;;;;;5106019;28;19920;-72
2021/12/29 00:02:48;;;;;;;;;;;7.20;99.90;;;;;;5105686;28;19987;-72
2021/12/29 00:05:14;;;;;;;;;;;7.20;99.90;;;;;;5105461;28;20234;-72
2021/12/29 00:07:41;;;;;;;;;;;7.30;99.90;;;;;;5105571;28;19927;-72
2021/12/29 00:10:08;;;;;;;;;;;7.30;99.90;;;;;;5105561;28;19926;-72
2021/12/29 00:12:41;;;;;;;;;;;7.20;99.90;;;;;;5105638;28;19931;-71
2021/12/29 00:15:08;;;;;;;;;;;7.20;99.90;;;;;;5105552;28;19920;-72
2021/12/29 00:17:35;;;;;;;;;;;7.30;99.90;;;;;;5105728;28;19943;-72
2021/12/29 00:20:01;;;;;;;;;;;7.30;99.90;;;;;;5105434;28;20226;-72
2021/12/29 00:22:28;;;;;;;;;;;7.30;99.90;;;;;;5105514;28;19920;-72
2021/12/29 00:24:54;;;;;;;;;;;7.30;99.90;;;;;;5104875;28;19920;-72
2021/12/29 00:27:21;;;;;;;;;;;7.40;99.90;;;;;;5105190;28;19920;-72
2021/12/29 00:29:49;;;;;;;;;;;7.40;99.90;;;;;;5105265;28;19920;-72
2021/12/29 00:32:16;;;;;;;;;;;7.40;99.90;;;;;;5105204;28;19920;-71
2021/12/29 00:34:43;;;;;;;;;;;7.40;99.90;;;;;;5104921;28;20212;-72
2021/12/29 00:37:09;;;;;;;;;;;7.40;99.90;;;;;;5105169;28;19991;-71
2021/12/29 00:39:36;;;;;;;;;;;7.40;99.90;;;;;;5105044;28;19920;-72
2021/12/29 00:42:02;;;;;;;;;;;7.40;99.90;;;;;;5105051;28;19920;-72
2021/12/29 00:44:30;;;;;;;;;;;7.40;99.90;;;;;;5104825;28;19926;-72
2021/12/29 00:46:58;;;;;;;;;;;7.40;99.90;;;;;;5104836;28;20211;-72
2021/12/29 00:49:30;;;;;;;;;;;7.40;99.90;;;;;;5105012;28;19983;-71
2021/12/29 00:51:57;;;;;;;;;;;7.40;99.90;;;;;;5104772;28;20272;-71
2021/12/29 00:54:24;;;;;;;;;;;7.40;99.90;;;;;;5104531;28;19926;-72
2021/12/29 00:56:50;;;;;;;;;;;7.40;99.90;;;;;;5104771;28;19924;-71
2021/12/29 00:59:19;;;;;;;;;;;7.40;99.90;;;;;;5104792;28;19926;-72
2021/12/29 01:01:45;;;;;;;;;;;7.40;99.90;;;;;;5104806;28;19951;-72
2021/12/29 01:04:13;;;;;;;;;;;7.40;99.90;;;;;;5103883;28;19927;-72
2021/12/29 01:06:40;;;;;;;;;;;7.40;99.90;;;;;;5104351;28;19920;-72
2021/12/29 01:09:07;;;;;;;;;;;7.40;99.90;;;;;;5104667;28;19920;-71
2021/12/29 01:11:33;;;;;;;;;;;7.40;99.90;;;;;;5104604;28;19927;-71
2021/12/29 01:14:00;;;;;;;;;;;7.40;99.90;;;;;;5104161;28;19928;-72
2021/12/29 01:16:39;;;;;;;;;;;7.40;99.90;;;;;;5104520;28;19928;-71
2021/12/29 01:19:08;;;;;;;;;;;7.40;99.90;;;;;;5104246;28;19920;-72
2021/12/29 01:21:36;;;;;;;;;;;7.40;99.90;;;;;;5104621;28;20118;-72
2021/12/29 01:24:03;;;;;;;;;;;7.40;99.90;;;;;;5104100;28;19926;-71
2021/12/29 01:26:30;;;;;;;;;;;7.40;99.90;;;;;;5104279;28;19920;-72
2021/12/29 01:28:56;;;;;;;;;;;7.50;99.90;;;;;;5104152;28;19979;-72
2021/12/29 01:31:23;;;;;;;;;;;7.50;99.90;;;;;;5103998;28;19920;-71
2021/12/29 01:33:49;;;;;;;;;;;7.40;99.90;;;;;;5104215;28;19983;-72
2021/12/29 01:36:16;;;;;;;;;;;7.40;99.90;;;;;;5104264;28;19920;-72
2021/12/29 01:38:44;;;;;;;;;;;7.50;99.90;;;;;;5104210;28;19920;-72
2021/12/29 01:41:11;;;;;;;;;;;7.50;99.90;;;;;;5103994;28;19923;-72
2021/12/29 01:43:39;;;;;;;;;;;7.50;99.90;;;;;;5103062;28;20304;-70
2021/12/29 01:46:06;;;;;;;;;;;7.50;99.90;;;;;;5103599;28;19928;-72
2021/12/29 01:48:32;;;;;;;;;;;7.40;99.90;;;;;;5104057;28;20123;-72
2021/12/29 01:50:59;;;;;;;;;;;7.40;99.90;;;;;;5103950;28;19920;-72
2021/12/29 01:53:29;;;;;;;;;;;7.40;99.90;;;;;;5150842;22;19920;-72
2021/12/29 01:55:57;;;;;;;;;;;7.40;99.90;;;;;;5103427;28;19920;-73
2021/12/29 01:58:24;;;;;;;;;;;7.40;99.90;;;;;;5103750;28;19978;-73
2021/12/29 02:00:53;;;;;;;;;;;7.40;99.90;;;;;;5104531;28;20226;-72
2021/12/29 02:03:20;;;;;;;;;;;7.40;99.90;;;;;;5104927;28;19962;-73
2021/12/29 02:05:47;;;;;;;;;;;7.40;99.90;;;;;;5105050;28;20154;-72
2021/12/29 02:08:21;;;;;;;;;;;7.40;99.90;;;;;;5104560;28;19919;-73
2021/12/29 02:10:48;;;;;;;;;;;7.40;99.90;;;;;;5103660;28;20368;-71
2021/12/29 02:13:16;;;;;;;;;;;7.40;99.90;;;;;;5103178;28;19951;-73
2021/12/29 02:15:43;;;;;;;;;;;7.40;99.90;;;;;;5102715;28;19924;-73
2021/12/29 02:18:13;;;;;;;;;;;7.40;99.90;;;;;;5103661;28;19934;-72
2021/12/29 02:20:43;;;;;;;;;;;7.40;99.90;;;;;;5103690;28;19982;-72
2021/12/29 02:23:15;;;;;;;;;;;7.40;99.90;;;;;;5103524;28;20110;-72
2021/12/29 02:25:49;;;;;;;;;;;7.40;99.90;;;;;;5102995;28;19983;-72
2021/12/29 02:28:16;;;;;;;;;;;7.30;99.90;;;;;;5103536;28;20123;-71
2021/12/29 02:30:43;;;;;;;;;;;7.40;99.90;;;;;;5103589;28;19946;-73
2021/12/29 02:33:13;;;;;;;;;;;7.40;99.90;;;;;;5103220;28;19927;-73
2021/12/29 02:35:41;;;;;;;;;;;7.40;99.90;;;;;;5103225;28;19920;-72
2021/12/29 02:38:11;;;;;;;;;;;7.40;99.90;;;;;;5103148;28;19920;-72
2021/12/29 02:40:38;;;;;;;;;;;7.40;99.90;;;;;;5103500;28;19983;-72
2021/12/29 02:43:06;;;;;;;;;;;7.40;99.90;;;;;;5103374;28;19962;-73
2021/12/29 02:45:34;;;;;;;;;;;7.40;99.90;;;;;;5103180;28;20100;-72
2021/12/29 02:48:00;;;;;;;;;;;7.40;99.90;;;;;;5102951;28;19926;-72
2021/12/29 02:50:27;;;;;;;;;;;7.40;99.90;;;;;;5103334;28;19920;-74
2021/12/29 02:52:55;;;;;;;;;;;7.40;99.90;;;;;;5103013;28;19934;-72
2021/12/29 02:55:22;;;;;;;;;;;7.40;99.90;;;;;;5103133;28;19920;-73
2021/12/29 02:57:48;;;;;;;;;;;7.40;99.90;;;;;;5103062;28;19927;-72
2021/12/29 03:00:15;;;;;;;;;;;7.40;99.90;;;;;;5102901;28;20199;-71
2021/12/29 03:02:42;;;;;;;;;;;7.30;99.90;;;;;;5103085;28;20215;-72
2021/12/29 03:05:09;;;;;;;;;;;7.40;99.90;;;;;;5102755;28;19942;-73
2021/12/29 03:07:36;;;;;;;;;;;7.40;99.90;;;;;;5103102;28;19935;-72
2021/12/29 03:10:04;;;;;;;;;;;7.40;99.90;;;;;;5102772;28;19927;-73
2021/12/29 03:12:30;;;;;;;;;;;7.40;99.90;;;;;;5103077;28;19920;-72
2021/12/29 03:14:58;;;;;;;;;;;7.40;99.90;;;;;;5102705;28;20126;-73
2021/12/29 03:17:25;;;;;;;;;;;7.40;99.90;;;;;;5102880;28;19920;-72
2021/12/29 03:19:51;;;;;;;;;;;7.40;99.90;;;;;;5102736;28;19981;-72
2021/12/29 03:22:18;;;;;;;;;;;7.40;99.90;;;;;;5103008;28;19927;-73
2021/12/29 03:24:45;;;;;;;;;;;7.40;99.90;;;;;;5102414;28;20222;-73
2021/12/29 03:27:12;;;;;;;;;;;7.40;99.90;;;;;;5103941;28;19920;-72
2021/12/29 03:29:39;;;;;;;;;;;7.40;99.90;;;;;;5106559;28;19928;-72
2021/12/29 03:32:09;;;;;;;;;;;7.40;99.90;;;;;;5106465;28;19924;-72
2021/12/29 03:34:36;;;;;;;;;;;7.40;99.90;;;;;;5105950;28;20211;-72
2021/12/29 03:37:02;;;;;;;;;;;7.40;99.90;;;;;;5106510;28;19920;-73
2021/12/29 03:39:35;;;;;;;;;;;7.40;99.90;;;;;;5106486;28;19920;-73
2021/12/29 03:42:01;;;;;;;;;;;7.40;99.90;;;;;;5106315;28;19927;-72
2021/12/29 03:44:29;;;;;;;;;;;7.40;99.90;;;;;;5105834;28;19927;-72
2021/12/29 03:46:56;;;;;;;;;;;7.30;99.90;;;;;;5105912;28;19920;-74
2021/12/29 03:49:22;;;;;;;;;;;7.30;99.90;;;;;;5106134;28;19946;-73
2021/12/29 03:51:49;;;;;;;;;;;7.30;99.90;;;;;;5106460;28;19920;-72
2021/12/29 03:54:16;;;;;;;;;;;7.30;99.90;;;;;;5105703;28;19920;-75
2021/12/29 03:56:42;;;;;;;;;;;7.40;99.90;;;;;;5106138;28;19926;-72
2021/12/29 03:59:09;;;;;;;;;;;7.30;99.90;;;;;;5105883;28;20207;-74
2021/12/29 04:01:37;;;;;;;;;;;7.40;99.90;;;;;;5105724;28;20092;-73
2021/12/29 04:04:03;;;;;;;;;;;7.40;99.90;;;;;;5105691;28;20092;-73
2021/12/29 04:06:30;;;;;;;;;;;7.40;99.90;;;;;;5105934;28;19920;-72
2021/12/29 04:08:56;;;;;;;;;;;7.40;99.90;;;;;;5105735;28;19920;-73
2021/12/29 04:11:23;;;;;;;;;;;7.40;99.90;;;;;;5105657;28;19920;-73
2021/12/29 04:13:50;;;;;;;;;;;7.40;99.90;;;;;;5105335;28;19920;-73
2021/12/29 04:16:18;;;;;;;;;;;7.40;99.90;;;;;;5105730;28;20157;-72
2021/12/29 04:19:06;;;;;;;;;;;7.30;99.90;;;;;;5105528;28;20123;-72
2021/12/29 04:21:32;;;;;;;;;;;7.40;99.90;;;;;;5105385;28;19920;-73
2021/12/29 04:23:58;;;;;;;;;;;7.40;99.90;;;;;;5105097;28;19916;-72
2021/12/29 04:26:25;;;;;;;;;;;7.40;99.90;;;;;;5105354;28;19927;-72
2021/12/29 04:28:51;;;;;;;;;;;7.40;99.90;;;;;;5105258;28;20204;-73
2021/12/29 04:31:18;;;;;;;;;;;7.40;99.90;;;;;;5105225;28;20157;-72
2021/12/29 04:33:46;;;;;;;;;;;7.40;99.90;;;;;;5104982;28;19954;-73
2021/12/29 04:36:12;;;;;;;;;;;7.40;99.90;;;;;;5105271;28;19965;-72
2021/12/29 04:38:39;;;;;;;;;;;7.40;99.90;;;;;;5104327;28;19927;-73
2021/12/29 04:41:06;;;;;;;;;;;7.30;99.90;;;;;;5105028;28;19920;-72
2021/12/29 04:43:32;;;;;;;;;;;7.40;99.90;;;;;;5105067;28;19920;-72
2021/12/29 04:45:59;;;;;;;;;;;7.30;99.90;;;;;;5104966;28;20229;-73
2021/12/29 04:48:28;;;;;;;;;;;7.30;99.90;;;;;;5105393;28;19920;-72
2021/12/29 04:51:11;;;;;;;;;;;7.30;99.90;;;;;;5104963;28;19991;-73
2021/12/29 04:53:38;;;;;;;;;;;7.30;99.90;;;;;;5104400;28;19920;-73
2021/12/29 04:56:05;;;;;;;;;;;7.30;99.90;;;;;;5104642;28;19927;-74
2021/12/29 04:58:31;;;;;;;;;;;7.30;99.90;;;;;;5104759;28;19920;-73
2021/12/29 05:00:58;;;;;;;;;;;7.30;99.90;;;;;;5104784;28;19935;-73
2021/12/29 05:03:25;;;;;;;;;;;7.30;99.90;;;;;;5104556;28;20204;-74
2021/12/29 05:08:24;;;;;;;;;;;7.30;99.90;;;;;;5104228;28;19920;-73
2021/12/29 05:08:42;;;;;;;;;;;7.30;99.90;;;;;;5104172;28;19920;-72
2021/12/29 05:11:10;;;;;;;;;;;7.30;99.90;;;;;;5104490;28;19951;-72
2021/12/29 05:13:37;;;;;;;;;;;7.30;99.90;;;;;;5104247;28;19957;-72
2021/12/29 05:16:04;;;;;;;;;;;7.30;99.90;;;;;;5104278;28;20230;-73
2021/12/29 05:18:31;;;;;;;;;;;7.30;99.90;;;;;;5104273;28;19943;-73
2021/12/29 05:20:59;;;;;;;;;;;7.30;99.90;;;;;;5104417;28;19986;-72
2021/12/29 05:23:25;;;;;;;;;;;7.30;99.90;;;;;;5104404;28;19920;-73
2021/12/29 05:25:54;;;;;;;;;;;7.30;99.90;;;;;;5104202;28;19923;-72
2021/12/29 05:28:20;;;;;;;;;;;7.30;99.90;;;;;;5104161;28;19928;-72
2021/12/29 05:30:49;;;;;;;;;;;7.30;99.90;;;;;;5104399;28;19920;-71
2021/12/29 05:33:16;;;;;;;;;;;7.30;99.90;;;;;;5103932;28;19920;-73
2021/12/29 05:35:43;;;;;;;;;;;7.40;99.90;;;;;;5103691;28;19927;-73
2021/12/29 05:38:09;;;;;;;;;;;7.30;99.90;;;;;;5103974;28;19920;-72
2021/12/29 05:40:36;;;;;;;;;;;7.30;99.90;;;;;;5103917;28;19924;-73
2021/12/29 05:43:04;;;;;;;;;;;7.30;99.90;;;;;;5103942;28;19925;-72
2021/12/29 05:45:31;;;;;;;;;;;7.40;99.90;;;;;;5103788;28;19921;-73
2021/12/29 05:47:57;;;;;;;;;;;7.40;99.90;;;;;;5103701;28;19954;-72
2021/12/29 05:50:26;;;;;;;;;;;7.40;99.90;;;;;;5103971;28;19920;-73
2021/12/29 05:52:53;;;;;;;;;;;7.30;99.90;;;;;;5103742;28;19920;-73
2021/12/29 05:55:19;;;;;;;;;;;7.30;99.90;;;;;;5103630;28;19983;-73
2021/12/29 05:57:46;;;;;;;;;;;7.30;99.90;;;;;;5103677;28;19942;-72
2021/12/29 06:00:16;;;;;;;;;;;7.30;99.90;;;;;;5103618;28;19920;-72
2021/12/29 06:02:43;;;;;;;;;;;7.30;99.90;;;;;;5104002;28;19959;-72
2021/12/29 06:05:10;;;;;;;;;;;7.20;99.90;;;;;;5103450;28;19920;-72
2021/12/29 06:07:37;;;;;;;;;;;7.20;99.90;;;;;;5103497;28;19920;-72
2021/12/29 06:10:05;;;;;;;;;;;7.20;99.90;;;;;;5103862;28;19927;-73
2021/12/29 06:12:31;;;;;;;;;;;7.30;99.90;;;;;;5103510;28;19942;-73
2021/12/29 06:14:58;;;;;;;;;;;7.30;99.90;;;;;;5103096;28;19935;-73
2021/12/29 06:17:26;;;;;;;;;;;7.20;99.90;;;;;;5103630;28;19926;-73
2021/12/29 06:19:53;;;;;;;;;;;7.20;99.90;;;;;;5103578;28;20203;-73
2021/12/29 06:22:20;;;;;;;;;;;7.30;99.90;;;;;;5103660;28;19952;-73
2021/12/29 06:24:51;;;;;;;;;;;7.30;99.90;;;;;;5103001;28;19927;-72
2021/12/29 06:27:18;;;;;;;;;;;7.30;99.90;;;;;;5103601;28;19920;-73
2021/12/29 06:29:45;;;;;;;;;;;7.20;99.90;;;;;;5103526;28;19924;-73
2021/12/29 06:32:11;;;;;;;;;;;7.20;99.90;;;;;;5103458;28;19999;-72
2021/12/29 06:34:39;;;;;;;;;;;7.20;99.90;;;;;;5103024;28;19920;-73
2021/12/29 06:37:08;;;;;;;;;;;7.20;99.90;;;;;;5103188;28;20140;-73
2021/12/29 06:39:35;;;;;;;;;;;7.20;99.90;;;;;;5103202;28;19928;-74
2021/12/29 06:42:02;;;;;;;;;;;7.20;99.90;;;;;;5103084;28;19943;-73
2021/12/29 06:44:28;;;;;;;;;;;7.20;99.90;;;;;;5102788;28;19920;-73
2021/12/29 06:46:55;;;;;;;;;;;7.20;99.90;;;;;;5103105;28;19920;-73
2021/12/29 06:49:22;;;;;;;;;;;7.20;99.90;;;;;;5102990;28;20234;-72
2021/12/29 06:51:50;;;;;;;;;;;7.20;99.90;;;;;;5103077;28;19920;-73
2021/12/29 06:54:16;;;;;;;;;;;7.20;99.90;;;;;;5102611;28;20116;-73
2021/12/29 06:56:43;;;;;;;;;;;7.20;99.90;;;;;;5103146;28;19926;-73
2021/12/29 06:59:10;;;;;;;;;;;7.20;99.90;;;;;;5103342;28;19920;-73
2021/12/29 07:01:36;;;;;;;;;;;7.20;99.90;;;;;;5103841;28;20100;-73
2021/12/29 07:04:03;;;;;;;;;;;7.20;99.90;;;;;;5106656;28;19920;-72
2021/12/29 07:06:30;;;;;;;;;;;7.20;99.90;;;;;;5107472;28;19920;-74
2021/12/29 07:08:58;;;;;;;;;;;7.20;99.90;;;;;;5106732;28;19926;-73
2021/12/29 07:11:24;;;;;;;;;;;7.20;99.90;;;;;;5107178;28;19927;-74
2021/12/29 07:13:51;;;;;;;;;;;7.20;99.90;;;;;;5106632;28;19927;-73
2021/12/29 07:16:18;;;;;;;;;;;7.20;99.90;;;;;;5106742;28;19920;-73
2021/12/29 07:18:48;;;;;;;;;;;7.20;99.90;;;;;;5106718;28;19920;-73
2021/12/29 07:21:15;;;;;;;;;;;7.30;99.90;;;;;;5106772;28;19923;-72
2021/12/29 07:23:41;;;;;;;;;;;7.20;99.90;;;;;;5106137;28;20238;-72
2021/12/29 07:26:09;;;;;;;;;;;7.20;99.90;;;;;;5106830;28;19920;-73
2021/12/29 07:28:37;;;;;;;;;;;7.30;99.90;;;;;;5106455;28;20229;-72
2021/12/29 07:31:03;;;;;;;;;;;7.30;99.90;;;;;;5106520;28;19919;-73
2021/12/29 07:33:30;;;;;;;;;;;7.20;99.90;;;;;;5106114;28;20204;-73
2021/12/29 07:35:56;;;;;;;;;;;7.20;99.90;;;;;;5106530;28;19943;-74
2021/12/29 07:38:23;;;;;;;;;;;7.20;99.90;;;;;;5106558;28;19920;-72
2021/12/29 07:40:49;;;;;;;;;;;7.20;99.90;;;;;;5106424;28;19927;-73
2021/12/29 07:43:18;;;;;;;;;;;7.20;99.90;;;;;;5106308;28;19925;-73
2021/12/29 07:45:45;;;;;;;;;;;7.20;99.90;;;;;;5105873;28;20215;-74
2021/12/29 07:48:12;;;;;;;;;;;7.20;99.90;;;;;;5106090;28;19920;-73
2021/12/29 07:50:38;;;;;;;;;;;7.20;99.90;;;;;;5105984;28;19927;-72
2021/12/29 07:53:05;;;;;;;;;;;7.20;99.90;;;;;;5105906;28;19942;-73
2021/12/29 07:55:32;;;;;;;;;;;7.20;99.90;;;;;;5105786;28;20226;-72
2021/12/29 07:57:59;;;;;;;;;;;7.20;99.90;;;;;;5105947;28;19927;-72
2021/12/29 08:00:27;;;;;;;;;;;7.20;99.90;;;;;;5105745;28;19987;-73
2021/12/29 08:02:54;;;;;;;;;;;7.20;99.90;;;;;;5105457;28;20225;-73
2021/12/29 08:05:22;;;;;;;;;;;7.20;99.90;;;;;;5104666;28;19928;-73
2021/12/29 08:07:49;;;;;;;;;;;7.20;99.90;;;;;;5105953;28;19965;-73
2021/12/29 08:10:16;;;;;;;;;;;7.20;99.90;;;;;;5105883;28;20124;-73
2021/12/29 08:12:42;;;;;;;;;;;7.20;99.90;;;;;;5105747;28;19920;-73
2021/12/29 08:15:09;;;;;;;;;;;7.20;99.90;;;;;;5104911;28;19920;-72
2021/12/29 08:17:37;;;;;;;;;;;7.20;99.90;;;;;;5105467;28;20115;-74
2021/12/29 08:20:04;;;;;;;;;;;7.20;99.90;;;;;;5105825;28;19955;-75
2021/12/29 08:22:31;;;;;;;;;;;7.20;99.90;;;;;;5105406;28;20211;-73
2021/12/29 08:24:58;;;;;;;;;;;7.30;99.90;;;;;;5105332;28;19926;-73
2021/12/29 08:27:24;;;;;;;;;;;7.30;99.90;;;;;;5105390;28;19920;-73
2021/12/29 08:29:51;;;;;;;;;;;7.30;99.90;;;;;;5105217;28;19920;-73
2021/12/29 08:32:18;;;;;;;;;;;7.30;99.90;;;;;;5105148;28;20238;-73
2021/12/29 08:34:45;;;;;;;;;;;7.40;99.90;;;;;;5104684;28;19927;-74
2021/12/29 08:37:12;;;;;;;;;;;7.40;99.90;;;;;;5105375;28;19927;-74
2021/12/29 08:39:39;;;;;;;;;;;7.40;99.90;;;;;;5105068;28;19927;-72
2021/12/29 08:42:05;;;;;;;;;;;7.40;99.90;;;;;;5105029;28;19920;-73
2021/12/29 08:44:32;;;;;;;;;;;7.40;99.90;;;;;;5104547;28;19931;-72
2021/12/29 08:46:59;;;;;;;;;;;7.40;99.90;;;;;;5104826;28;20204;-73
2021/12/29 08:49:25;;;;;;;;;;;7.40;99.90;;;;;;5105179;28;19920;-73
2021/12/29 08:51:53;;;;;;;;;;;7.40;99.90;;;;;;5105084;28;19920;-73
2021/12/29 08:54:20;;;;;;;;;;;7.40;99.90;;;;;;5104405;28;20222;-73
2021/12/29 08:56:46;;;;;;;;;;;7.50;99.90;;;;;;5104734;28;19926;-73
2021/12/29 08:59:13;;;;;;;;;;;7.50;99.90;;;;;;5104695;28;19927;-73
2021/12/29 09:01:40;;;;;;;;;;;7.50;99.90;;;;;;5104565;28;19957;-72
2021/12/29 09:04:07;;;;;;;;;;;7.50;99.90;;;;;;5104340;28;19965;-72
2021/12/29 09:06:34;;;;;;;;;;;7.50;99.90;;;;;;5104718;28;19920;-73
2021/12/29 09:09:03;;;;;;;;;;;7.50;99.90;;;;;;5104886;28;20113;-72
2021/12/29 09:11:30;;;;;;;;;;;7.50;99.90;;;;;;5104617;28;19920;-72
2021/12/29 09:13:56;;;;;;;;;;;7.50;99.90;;;;;;5104139;28;19955;-73
2021/12/29 09:16:23;;;;;;;;;;;7.50;99.90;;;;;;5104636;28;20124;-72
2021/12/29 09:18:50;;;;;;;;;;;7.40;99.90;;;;;;5104806;28;20115;-74
2021/12/29 09:21:18;;;;;;;;;;;7.50;99.90;;;;;;5105782;28;19920;-74
2021/12/29 09:23:45;;;;;;;;;;;7.50;99.90;;;;;;5104237;28;19973;-74
2021/12/29 09:26:14;;;;;;;;;;;7.60;99.90;;;;;;5103883;28;19920;-74
2021/12/29 09:28:41;;;;;;;;;;;7.60;99.90;;;;;;5104103;28;19920;-74
2021/12/29 09:31:08;;;;;;;;;;;7.60;99.90;;;;;;5104055;28;20096;-74
2021/12/29 09:33:35;;;;;;;;;;;7.60;99.90;;;;;;5103945;28;19924;-73
2021/12/29 09:36:02;;;;;;;;;;;7.60;99.90;;;;;;5104463;28;20111;-74
2021/12/29 09:38:31;;;;;;;;;;;7.60;99.90;;;;;;5103901;28;19927;-73
2021/12/29 09:40:58;;;;;;;;;;;7.60;99.90;;;;;;5104044;28;20273;-72
2021/12/29 09:43:25;;;;;;;;;;;7.60;99.90;;;;;;5104043;28;19926;-74
2021/12/29 09:45:52;;;;;;;;;;;7.70;99.90;;;;;;5103596;28;19920;-74
2021/12/29 09:48:19;;;;;;;;;;;7.70;99.90;;;;;;5103807;28;19920;-73
2021/12/29 09:50:46;;;;;;;;;;;7.70;99.90;;;;;;5103876;28;19928;-74
2021/12/29 09:53:13;;;;;;;;;;;7.70;99.90;;;;;;5103603;28;19920;-73
2021/12/29 09:55:40;;;;;;;;;;;7.70;99.90;;;;;;5103334;28;19942;-73
2021/12/29 09:58:08;;;;;;;;;;;7.70;99.90;;;;;;5103739;28;20207;-75
2021/12/29 10:00:38;;;;;;;;;;;7.70;99.90;;;;;;5103965;28;19920;-73
2021/12/29 10:03:07;;;;;;;;;;;7.70;99.90;;;;;;5103535;28;19924;-74
2021/12/29 10:05:35;;;;;;;;;;;7.70;99.90;;;;;;5103407;28;19965;-73
2021/12/29 10:08:03;;;;;;;;;;;7.70;99.90;;;;;;5103485;28;20207;-73
2021/12/29 10:10:30;;;;;;;;;;;7.80;99.90;;;;;;5103711;28;19927;-73
2021/12/29 10:12:57;;;;;;;;;;;7.80;99.90;;;;;;5103688;28;19931;-73
2021/12/29 10:15:27;;;;;;;;;;;7.70;99.90;;;;;;5103237;28;19927;-73
2021/12/29 10:18:01;;;;;;;;;;;7.80;99.90;;;;;;5103517;28;19920;-73
2021/12/29 10:20:28;;;;;;;;;;;7.80;99.90;;;;;;5103420;28;19920;-75
2021/12/29 10:22:56;;;;;;;;;;;7.80;99.90;;;;;;5103545;28;19942;-72
2021/12/29 10:25:24;;;;;;;;;;;7.80;99.90;;;;;;5102997;28;19919;-72
2021/12/29 10:27:51;;;;;;;;;;;7.80;99.90;;;;;;5103521;28;19956;-72
2021/12/29 10:30:19;;;;;;;;;;;7.80;99.90;;;;;;5103364;28;19926;-73
2021/12/29 10:32:46;;;;;;;;;;;7.80;99.90;;;;;;5103379;28;19927;-72
2021/12/29 10:35:22;;;;;;;;;;;7.80;99.90;;;;;;5102949;28;19927;-72
2021/12/29 10:37:49;;;;;;;;;;;7.80;99.90;;;;;;5106023;28;19920;-74
2021/12/29 10:40:25;;;;;;;;;;;7.80;99.90;;;;;;5108013;28;19927;-74
2021/12/29 10:42:53;;;;;;;;;;;7.80;99.90;;;;;;5107550;28;20200;-71
2021/12/29 10:45:28;;;;;;;;;;;7.80;99.90;;;;;;5107376;28;19926;-72
2021/12/29 10:47:55;;;;;;;;;;;7.80;99.90;;;;;;5107316;28;19927;-71
2021/12/29 10:50:23;;;;;;;;;;;7.80;99.90;;;;;;5107176;28;19920;-74
2021/12/29 10:52:50;;;;;;;;;;;7.70;99.90;;;;;;5107145;28;19920;-72
2021/12/29 10:55:19;;;;;;;;;;;7.80;99.90;;;;;;5107055;28;19957;-73
2021/12/29 10:57:46;;;;;;;;;;;7.80;99.90;;;;;;5107087;28;19987;-73
2021/12/29 11:00:15;;;;;;;;;;;7.80;99.90;;;;;;5107094;28;19981;-72
2021/12/29 11:02:43;;;;;;;;;;;7.80;99.90;;;;;;5107934;28;20200;-73
2021/12/29 11:05:11;;;;;;;;;;;7.80;99.90;;;;;;5106967;28;19951;-74
2021/12/29 11:07:40;;;;;;;;;;;7.80;99.90;;;;;;5106916;28;19920;-72
2021/12/29 11:10:10;;;;;;;;;;;7.80;99.90;;;;;;5106896;28;19965;-73
2021/12/29 11:12:44;;;;;;;;;;;7.80;99.90;;;;;;5106824;28;20118;-73
2021/12/29 11:15:14;;;;;;;;;;;7.90;99.90;;;;;;5106771;28;19927;-74
2021/12/29 11:17:41;;;;;;;;;;;7.90;99.90;;;;;;5106957;28;20138;-73
2021/12/29 11:20:08;;;;;;;;;;;7.90;99.90;;;;;;5106897;28;19924;-73
2021/12/29 11:22:39;;;;;;;;;;;7.90;99.90;;;;;;5106882;28;19920;-73
2021/12/29 11:25:07;;;;;;;;;;;7.90;99.90;;;;;;5106442;28;19920;-73
2021/12/29 11:27:35;;;;;;;;;;;8.00;99.90;;;;;;5106542;28;19927;-74
2021/12/29 11:30:03;;;;;;;;;;;8.00;99.90;;;;;;5106676;28;19920;-73
2021/12/29 11:32:31;;;;;;;;;;;8.00;99.90;;;;;;5106729;28;20265;-74
2021/12/29 11:34:59;;;;;;;;;;;8.00;99.90;;;;;;5106211;28;20093;-73
2021/12/29 11:37:26;;;;;;;;;;;8.00;99.90;;;;;;5106468;28;19920;-72
2021/12/29 11:39:52;;;;;;;;;;;8.00;99.90;;;;;;5106447;28;19920;-75
2021/12/29 11:42:20;;;;;;;;;;;8.10;99.90;;;;;;5106380;28;19920;-74
2021/12/29 11:44:47;;;;;;;;;;;8.10;99.90;;;;;;5105982;28;19920;-74
2021/12/29 11:47:14;;;;;;;;;;;8.20;99.90;;;;;;5106626;28;19942;-73
2021/12/29 11:49:40;;;;;;;;;;;8.20;99.90;;;;;;5106182;28;19967;-73
2021/12/29 11:52:13;;;;;;;;;;;8.30;99.90;;;;;;5106261;28;19920;-74
2021/12/29 11:54:48;;;;;;;;;;;8.30;99.90;;;;;;5105895;28;20218;-73
2021/12/29 11:57:15;;;;;;;;;;;8.30;99.90;;;;;;5105975;28;19920;-73
2021/12/29 11:59:43;;;;;;;;;;;8.40;99.90;;;;;;5105981;28;20243;-73
2021/12/29 12:02:10;;;;;;;;;;;8.40;99.90;;;;;;5105921;28;19995;-73
2021/12/29 12:04:37;;;;;;;;;;;8.40;99.90;;;;;;5105450;28;20101;-73
2021/12/29 12:07:05;;;;;;;;;;;8.40;99.90;;;;;;5105676;28;20303;-73
2021/12/29 12:09:44;;;;;;;;;;;8.40;99.90;;;;;;5105916;28;20025;-73
2021/12/29 12:12:12;;;;;;;;;;;8.50;99.90;;;;;;5105700;28;19920;-73
2021/12/29 12:14:46;;;;;;;;;;;8.50;99.90;;;;;;5105298;28;19920;-73
2021/12/29 12:17:14;;;;;;;;;;;8.50;99.90;;;;;;5105527;28;19920;-73
2021/12/29 12:19:40;;;;;;;;;;;8.50;99.90;;;;;;5106051;28;19942;-73
2021/12/29 12:22:08;;;;;;;;;;;8.50;99.90;;;;;;5105392;28;19927;-73
2021/12/29 12:24:36;;;;;;;;;;;8.50;99.90;;;;;;5105247;28;20253;-73
2021/12/29 12:27:04;;;;;;;;;;;8.40;99.90;;;;;;5105585;28;19920;-73
2021/12/29 12:29:32;;;;;;;;;;;8.40;99.90;;;;;;5105428;28;19923;-73
2021/12/29 12:32:01;;;;;;;;;;;8.40;99.90;;;;;;5105672;28;19920;-72
2021/12/29 12:34:28;;;;;;;;;;;8.40;99.90;;;;;;5105019;28;19926;-75
2021/12/29 12:36:55;;;;;;;;;;;8.40;99.90;;;;;;5105757;28;19924;-72
2021/12/29 12:39:22;;;;;;;;;;;8.30;99.90;;;;;;5105260;28;19920;-72
2021/12/29 12:41:49;;;;;;;;;;;8.40;99.90;;;;;;5105011;28;20234;-72
2021/12/29 12:44:19;;;;;;;;;;;8.40;99.90;;;;;;5104705;28;19924;-72
2021/12/29 12:46:46;;;;;;;;;;;8.40;99.90;;;;;;5105294;28;19920;-73
2021/12/29 12:49:16;;;;;;;;;;;8.40;99.90;;;;;;5105030;28;19920;-72
2021/12/29 12:51:53;;;;;;;;;;;8.40;99.90;;;;;;5105483;28;19920;-73
2021/12/29 12:54:21;;;;;;;;;;;8.50;99.90;;;;;;5104495;28;19920;-73
2021/12/29 12:56:48;;;;;;;;;;;8.40;99.90;;;;;;5104953;28;19927;-72
2021/12/29 12:59:15;;;;;;;;;;;8.40;99.90;;;;;;5104321;28;19926;-73
2021/12/29 13:01:44;;;;;;;;;;;8.50;99.90;;;;;;5104777;28;19920;-72
2021/12/29 13:04:12;;;;;;;;;;;8.50;99.90;;;;;;5104195;28;19956;-73
2021/12/29 13:06:41;;;;;;;;;;;8.50;99.90;;;;;;5104624;28;19958;-73
2021/12/29 13:09:08;;;;;;;;;;;8.50;99.90;;;;;;5104549;28;19935;-72
2021/12/29 13:11:36;;;;;;;;;;;8.50;99.90;;;;;;5104430;28;19920;-73
2021/12/29 13:14:04;;;;;;;;;;;8.60;99.90;;;;;;5104177;28;20211;-74
2021/12/29 13:16:31;;;;;;;;;;;8.50;99.90;;;;;;5104415;28;19927;-73
2021/12/29 13:18:58;;;;;;;;;;;8.50;99.90;;;;;;5104529;28;19920;-73
2021/12/29 13:21:26;;;;;;;;;;;8.60;99.90;;;;;;5104802;28;20230;-74
2021/12/29 13:23:54;;;;;;;;;;;8.60;99.90;;;;;;5104399;28;20123;-73
2021/12/29 13:26:21;;;;;;;;;;;8.50;99.90;;;;;;5104151;28;19956;-73
2021/12/29 13:28:50;;;;;;;;;;;8.60;99.90;;;;;;5104272;28;20204;-72
2021/12/29 13:31:18;;;;;;;;;;;8.50;99.90;;;;;;5104226;28;19928;-73
2021/12/29 13:33:46;;;;;;;;;;;8.50;99.90;;;;;;5104214;28;19934;-73
2021/12/29 13:36:13;;;;;;;;;;;8.50;99.90;;;;;;5104085;28;19926;-73
2021/12/29 13:38:40;;;;;;;;;;;8.50;99.90;;;;;;5103974;28;19920;-73
2021/12/29 13:41:09;;;;;;;;;;;8.50;99.90;;;;;;5104180;28;19920;-72
2021/12/29 13:43:37;;;;;;;;;;;8.50;99.90;;;;;;5103750;28;19920;-73
2021/12/29 13:46:08;;;;;;;;;;;8.40;99.90;;;;;;5104021;28;20138;-73
2021/12/29 13:48:36;;;;;;;;;;;8.30;99.90;;;;;;5104055;28;19920;-72
2021/12/29 13:51:04;;;;;;;;;;;8.30;99.90;;;;;;5103833;28;19920;-73
2021/12/29 13:53:31;;;;;;;;;;;8.30;99.90;;;;;;5104144;28;19975;-74
2021/12/29 13:56:05;;;;;;;;;;;8.30;99.90;;;;;;5103916;28;19920;-74
2021/12/29 13:58:33;;;;;;;;;;;8.20;99.90;;;;;;5103856;28;19920;-75
2021/12/29 14:00:59;;;;;;;;;;;8.20;99.90;;;;;;5103943;28;20134;-75
2021/12/29 14:03:26;;;;;;;;;;;8.20;99.90;;;;;;5103652;28;19920;-75
2021/12/29 14:05:52;;;;;;;;;;;8.30;99.90;;;;;;5103921;28;19920;-75
2021/12/29 14:08:19;;;;;;;;;;;8.30;99.90;;;;;;5103760;28;20165;-75
2021/12/29 14:10:46;;;;;;;;;;;8.20;99.90;;;;;;5103256;28;19926;-76
2021/12/29 14:13:14;;;;;;;;;;;8.20;99.90;;;;;;5103139;28;19927;-75
2021/12/29 14:15:43;;;;;;;;;;;8.20;99.90;;;;;;5103520;28;19924;-75
2021/12/29 14:18:16;;;;;;;;;;;8.20;99.90;;;;;;5103542;28;20212;-76
2021/12/29 14:20:43;;;;;;;;;;;8.10;99.90;;;;;;5104077;28;19921;-75
2021/12/29 14:23:10;;;;;;;;;;;8.10;99.90;;;;;;5103721;28;19920;-74
2021/12/29 14:25:38;;;;;;;;;;;8.20;99.90;;;;;;5103567;28;19920;-75
2021/12/29 14:28:11;;;;;;;;;;;8.20;99.90;;;;;;5103812;28;19926;-74
2021/12/29 14:30:42;;;;;;;;;;;8.20;99.90;;;;;;5103516;28;19927;-74
2021/12/29 14:33:10;;;;;;;;;;;8.20;99.90;;;;;;5103674;28;19926;-75